sensor_id;sensor_type;location;lat;lon;timestamp;P1;durP1;ratioP1;P2;durP2;ratioP2
20621;SDS011;10470;42.670;23.354;2024-01-30T00:02:05;7.83;;;4.93;;
20621;SDS011;10470;42.670;23.354;2024-01-30T00:04:30;7.43;;;4.20;;
20621;SDS011;10470;42.670;23.354;2024-01-30T00:06:55;7.77;;;4.47;;
20621;SDS011;10470;42.670;23.354;2024-01-30T00:09:20;6.53;;;4.90;;
20621;SDS011;10470;42.670;23.354;2024-01-30T00:11:46;5.70;;;4.37;;
20621;SDS011;10470;42.670;23.354;2024-01-30T00:14:14;7.23;;;4.80;;
20621;SDS011;10470;42.670;23.354;2024-01-30T00:16:40;6.67;;;4.80;;
20621;SDS011;10470;42.670;23.354;2024-01-30T00:19:05;6.53;;;4.70;;
20621;SDS011;10470;42.670;23.354;2024-01-30T00:21:30;6.50;;;4.73;;
20621;SDS011;10470;42.670;23.354;2024-01-30T00:23:56;7.83;;;4.80;;
20621;SDS011;10470;42.670;23.354;2024-01-30T00:26:21;5.70;;;4.77;;
20621;SDS011;10470;42.670;23.354;2024-01-30T00:28:46;6.03;;;4.47;;
20621;SDS011;10470;42.670;23.354;2024-01-30T00:31:12;5.60;;;4.43;;
20621;SDS011;10470;42.670;23.354;2024-01-30T00:33:37;8.17;;;4.87;;
20621;SDS011;10470;42.670;23.354;2024-01-30T00:36:03;9.73;;;6.17;;
20621;SDS011;10470;42.670;23.354;2024-01-30T00:38:28;7.50;;;5.27;;
20621;SDS011;10470;42.670;23.354;2024-01-30T00:40:53;9.17;;;5.47;;
20621;SDS011;10470;42.670;23.354;2024-01-30T00:43:19;8.70;;;5.57;;
20621;SDS011;10470;42.670;23.354;2024-01-30T00:45:45;7.60;;;5.10;;
20621;SDS011;10470;42.670;23.354;2024-01-30T00:48:10;7.97;;;5.20;;
20621;SDS011;10470;42.670;23.354;2024-01-30T00:50:35;7.03;;;5.07;;
20621;SDS011;10470;42.670;23.354;2024-01-30T00:53:01;7.30;;;5.20;;
20621;SDS011;10470;42.670;23.354;2024-01-30T00:55:26;7.83;;;5.77;;
20621;SDS011;10470;42.670;23.354;2024-01-30T00:57:51;8.87;;;5.60;;
20621;SDS011;10470;42.670;23.354;2024-01-30T01:00:17;8.30;;;5.37;;
20621;SDS011;10470;42.670;23.354;2024-01-30T01:02:42;8.77;;;5.73;;
20621;SDS011;10470;42.670;23.354;2024-01-30T01:05:08;9.37;;;5.63;;
20621;SDS011;10470;42.670;23.354;2024-01-30T01:07:33;8.53;;;5.67;;
20621;SDS011;10470;42.670;23.354;2024-01-30T01:09:58;7.37;;;5.17;;
20621;SDS011;10470;42.670;23.354;2024-01-30T01:12:23;8.43;;;5.40;;
20621;SDS011;10470;42.670;23.354;2024-01-30T01:14:49;10.20;;;5.97;;
20621;SDS011;10470;42.670;23.354;2024-01-30T01:17:14;8.77;;;5.70;;
20621;SDS011;10470;42.670;23.354;2024-01-30T01:19:39;8.43;;;5.33;;
20621;SDS011;10470;42.670;23.354;2024-01-30T01:22:05;10.47;;;5.70;;
20621;SDS011;10470;42.670;23.354;2024-01-30T01:24:33;6.87;;;5.07;;
20621;SDS011;10470;42.670;23.354;2024-01-30T01:26:59;8.83;;;5.23;;
20621;SDS011;10470;42.670;23.354;2024-01-30T01:29:24;8.03;;;5.53;;
20621;SDS011;10470;42.670;23.354;2024-01-30T01:31:54;13.97;;;5.50;;
20621;SDS011;10470;42.670;23.354;2024-01-30T01:34:19;8.23;;;5.43;;
20621;SDS011;10470;42.670;23.354;2024-01-30T01:36:44;7.43;;;5.53;;
20621;SDS011;10470;42.670;23.354;2024-01-30T01:39:10;8.30;;;4.93;;
20621;SDS011;10470;42.670;23.354;2024-01-30T01:41:35;7.17;;;4.90;;
20621;SDS011;10470;42.670;23.354;2024-01-30T01:44:01;7.57;;;5.50;;
20621;SDS011;10470;42.670;23.354;2024-01-30T01:46:26;7.40;;;4.93;;
20621;SDS011;10470;42.670;23.354;2024-01-30T01:48:52;8.93;;;5.10;;
20621;SDS011;10470;42.670;23.354;2024-01-30T01:51:18;6.10;;;4.90;;
20621;SDS011;10470;42.670;23.354;2024-01-30T01:53:44;8.03;;;5.13;;
20621;SDS011;10470;42.670;23.354;2024-01-30T01:56:09;9.03;;;5.10;;
20621;SDS011;10470;42.670;23.354;2024-01-30T01:58:34;7.30;;;4.90;;
20621;SDS011;10470;42.670;23.354;2024-01-30T02:01:00;7.17;;;5.13;;
20621;SDS011;10470;42.670;23.354;2024-01-30T02:03:26;8.53;;;4.80;;
20621;SDS011;10470;42.670;23.354;2024-01-30T02:05:52;7.07;;;5.17;;
20621;SDS011;10470;42.670;23.354;2024-01-30T02:08:17;9.13;;;5.30;;
20621;SDS011;10470;42.670;23.354;2024-01-30T02:10:42;6.97;;;5.07;;
20621;SDS011;10470;42.670;23.354;2024-01-30T02:13:08;7.83;;;5.47;;
20621;SDS011;10470;42.670;23.354;2024-01-30T02:15:33;8.13;;;5.07;;
20621;SDS011;10470;42.670;23.354;2024-01-30T02:17:58;6.47;;;4.97;;
20621;SDS011;10470;42.670;23.354;2024-01-30T02:20:24;7.40;;;4.87;;
20621;SDS011;10470;42.670;23.354;2024-01-30T02:22:50;8.00;;;5.33;;
20621;SDS011;10470;42.670;23.354;2024-01-30T02:25:16;6.40;;;4.70;;
20621;SDS011;10470;42.670;23.354;2024-01-30T02:27:41;16.03;;;5.50;;
20621;SDS011;10470;42.670;23.354;2024-01-30T02:30:07;5.57;;;4.60;;
20621;SDS011;10470;42.670;23.354;2024-01-30T02:32:32;5.80;;;4.63;;
20621;SDS011;10470;42.670;23.354;2024-01-30T02:34:57;7.27;;;5.00;;
20621;SDS011;10470;42.670;23.354;2024-01-30T02:37:23;8.20;;;4.33;;
20621;SDS011;10470;42.670;23.354;2024-01-30T02:39:48;7.17;;;4.80;;
20621;SDS011;10470;42.670;23.354;2024-01-30T02:42:13;6.67;;;4.70;;
20621;SDS011;10470;42.670;23.354;2024-01-30T02:44:38;7.17;;;4.73;;
20621;SDS011;10470;42.670;23.354;2024-01-30T02:47:04;6.23;;;4.13;;
20621;SDS011;10470;42.670;23.354;2024-01-30T02:49:29;7.97;;;4.90;;
20621;SDS011;10470;42.670;23.354;2024-01-30T02:51:54;7.67;;;4.60;;
20621;SDS011;10470;42.670;23.354;2024-01-30T02:54:21;6.27;;;4.50;;
20621;SDS011;10470;42.670;23.354;2024-01-30T02:56:46;7.90;;;4.60;;
20621;SDS011;10470;42.670;23.354;2024-01-30T02:59:13;7.13;;;4.20;;
20621;SDS011;10470;42.670;23.354;2024-01-30T03:01:44;6.40;;;4.50;;
20621;SDS011;10470;42.670;23.354;2024-01-30T03:04:10;7.00;;;4.30;;
20621;SDS011;10470;42.670;23.354;2024-01-30T03:06:36;5.93;;;4.37;;
20621;SDS011;10470;42.670;23.354;2024-01-30T03:09:01;6.07;;;4.30;;
20621;SDS011;10470;42.670;23.354;2024-01-30T03:11:26;8.43;;;4.53;;
20621;SDS011;10470;42.670;23.354;2024-01-30T03:13:51;8.90;;;4.63;;
20621;SDS011;10470;42.670;23.354;2024-01-30T03:16:17;7.67;;;4.40;;
20621;SDS011;10470;42.670;23.354;2024-01-30T03:18:42;6.53;;;4.00;;
20621;SDS011;10470;42.670;23.354;2024-01-30T03:21:07;5.77;;;4.50;;
20621;SDS011;10470;42.670;23.354;2024-01-30T03:23:32;6.13;;;4.07;;
20621;SDS011;10470;42.670;23.354;2024-01-30T03:25:58;5.77;;;4.10;;
20621;SDS011;10470;42.670;23.354;2024-01-30T03:28:23;6.50;;;3.97;;
20621;SDS011;10470;42.670;23.354;2024-01-30T03:30:49;4.97;;;4.00;;
20621;SDS011;10470;42.670;23.354;2024-01-30T03:33:14;5.30;;;4.43;;
20621;SDS011;10470;42.670;23.354;2024-01-30T03:35:39;5.60;;;4.03;;
20621;SDS011;10470;42.670;23.354;2024-01-30T03:38:04;6.87;;;4.00;;
20621;SDS011;10470;42.670;23.354;2024-01-30T03:40:30;5.17;;;3.93;;
20621;SDS011;10470;42.670;23.354;2024-01-30T03:42:55;7.20;;;4.43;;
20621;SDS011;10470;42.670;23.354;2024-01-30T03:45:20;6.13;;;3.97;;
20621;SDS011;10470;42.670;23.354;2024-01-30T03:47:46;5.60;;;4.20;;
20621;SDS011;10470;42.670;23.354;2024-01-30T03:50:11;5.70;;;4.00;;
20621;SDS011;10470;42.670;23.354;2024-01-30T03:52:36;5.90;;;4.33;;
20621;SDS011;10470;42.670;23.354;2024-01-30T03:55:02;7.57;;;4.47;;
20621;SDS011;10470;42.670;23.354;2024-01-30T03:57:27;7.10;;;4.70;;
20621;SDS011;10470;42.670;23.354;2024-01-30T03:59:52;9.70;;;4.43;;
20621;SDS011;10470;42.670;23.354;2024-01-30T04:02:18;6.67;;;4.37;;
20621;SDS011;10470;42.670;23.354;2024-01-30T04:04:44;7.50;;;4.40;;
20621;SDS011;10470;42.670;23.354;2024-01-30T04:07:09;7.37;;;4.50;;
20621;SDS011;10470;42.670;23.354;2024-01-30T04:09:34;7.43;;;4.23;;
20621;SDS011;10470;42.670;23.354;2024-01-30T04:11:59;5.53;;;3.87;;
20621;SDS011;10470;42.670;23.354;2024-01-30T04:14:25;4.83;;;3.47;;
20621;SDS011;10470;42.670;23.354;2024-01-30T04:16:50;5.80;;;3.70;;
20621;SDS011;10470;42.670;23.354;2024-01-30T04:19:15;5.73;;;4.43;;
20621;SDS011;10470;42.670;23.354;2024-01-30T04:21:41;7.57;;;4.00;;
20621;SDS011;10470;42.670;23.354;2024-01-30T04:24:06;5.87;;;4.00;;
20621;SDS011;10470;42.670;23.354;2024-01-30T04:26:31;5.37;;;4.07;;
20621;SDS011;10470;42.670;23.354;2024-01-30T04:28:56;8.17;;;5.00;;
20621;SDS011;10470;42.670;23.354;2024-01-30T04:31:22;30.60;;;12.63;;
20621;SDS011;10470;42.670;23.354;2024-01-30T04:33:47;19.30;;;8.50;;
20621;SDS011;10470;42.670;23.354;2024-01-30T04:36:12;12.13;;;5.73;;
20621;SDS011;10470;42.670;23.354;2024-01-30T04:38:38;7.97;;;4.30;;
20621;SDS011;10470;42.670;23.354;2024-01-30T04:41:04;8.27;;;4.23;;
20621;SDS011;10470;42.670;23.354;2024-01-30T04:43:30;6.30;;;4.00;;
20621;SDS011;10470;42.670;23.354;2024-01-30T04:45:56;10.17;;;4.10;;
20621;SDS011;10470;42.670;23.354;2024-01-30T04:48:21;6.43;;;4.10;;
20621;SDS011;10470;42.670;23.354;2024-01-30T04:50:46;7.40;;;4.03;;
20621;SDS011;10470;42.670;23.354;2024-01-30T04:53:11;5.37;;;4.00;;
20621;SDS011;10470;42.670;23.354;2024-01-30T04:55:37;10.87;;;6.40;;
20621;SDS011;10470;42.670;23.354;2024-01-30T04:58:02;9.17;;;5.10;;
20621;SDS011;10470;42.670;23.354;2024-01-30T05:00:27;7.00;;;4.50;;
20621;SDS011;10470;42.670;23.354;2024-01-30T05:02:54;7.63;;;4.80;;
20621;SDS011;10470;42.670;23.354;2024-01-30T05:05:19;7.33;;;4.40;;
20621;SDS011;10470;42.670;23.354;2024-01-30T05:07:45;6.03;;;4.00;;
20621;SDS011;10470;42.670;23.354;2024-01-30T05:10:11;5.93;;;3.77;;
20621;SDS011;10470;42.670;23.354;2024-01-30T05:12:36;3.83;;;3.33;;
20621;SDS011;10470;42.670;23.354;2024-01-30T05:15:01;4.20;;;3.30;;
20621;SDS011;10470;42.670;23.354;2024-01-30T05:17:26;8.27;;;3.90;;
20621;SDS011;10470;42.670;23.354;2024-01-30T05:19:52;5.53;;;3.70;;
20621;SDS011;10470;42.670;23.354;2024-01-30T05:22:17;4.73;;;3.50;;
20621;SDS011;10470;42.670;23.354;2024-01-30T05:24:43;8.03;;;4.00;;
20621;SDS011;10470;42.670;23.354;2024-01-30T05:27:09;5.17;;;3.37;;
20621;SDS011;10470;42.670;23.354;2024-01-30T05:29:34;5.87;;;3.80;;
20621;SDS011;10470;42.670;23.354;2024-01-30T05:31:59;6.53;;;4.40;;
20621;SDS011;10470;42.670;23.354;2024-01-30T05:34:25;9.27;;;4.47;;
20621;SDS011;10470;42.670;23.354;2024-01-30T05:36:50;10.07;;;5.30;;
20621;SDS011;10470;42.670;23.354;2024-01-30T05:39:15;10.90;;;5.37;;
20621;SDS011;10470;42.670;23.354;2024-01-30T05:41:59;12.40;;;7.03;;
20621;SDS011;10470;42.670;23.354;2024-01-30T05:44:25;12.87;;;5.83;;
20621;SDS011;10470;42.670;23.354;2024-01-30T05:46:50;12.30;;;5.97;;
20621;SDS011;10470;42.670;23.354;2024-01-30T05:49:15;13.90;;;6.90;;
20621;SDS011;10470;42.670;23.354;2024-01-30T05:51:40;10.43;;;5.77;;
20621;SDS011;10470;42.670;23.354;2024-01-30T05:54:06;14.30;;;7.80;;
20621;SDS011;10470;42.670;23.354;2024-01-30T05:56:31;15.60;;;7.93;;
20621;SDS011;10470;42.670;23.354;2024-01-30T05:58:56;14.60;;;6.53;;
20621;SDS011;10470;42.670;23.354;2024-01-30T06:01:22;16.80;;;7.00;;
20621;SDS011;10470;42.670;23.354;2024-01-30T06:03:47;11.00;;;6.00;;
20621;SDS011;10470;42.670;23.354;2024-01-30T06:06:12;23.90;;;7.30;;
20621;SDS011;10470;42.670;23.354;2024-01-30T06:08:38;24.03;;;6.50;;
20621;SDS011;10470;42.670;23.354;2024-01-30T06:11:03;18.33;;;7.60;;
20621;SDS011;10470;42.670;23.354;2024-01-30T06:13:28;17.03;;;7.30;;
20621;SDS011;10470;42.670;23.354;2024-01-30T06:15:56;18.77;;;6.90;;
20621;SDS011;10470;42.670;23.354;2024-01-30T06:18:22;17.80;;;7.27;;
20621;SDS011;10470;42.670;23.354;2024-01-30T06:20:47;12.33;;;6.73;;
20621;SDS011;10470;42.670;23.354;2024-01-30T06:23:12;14.57;;;6.43;;
20621;SDS011;10470;42.670;23.354;2024-01-30T06:25:38;18.67;;;7.23;;
20621;SDS011;10470;42.670;23.354;2024-01-30T06:28:03;12.37;;;6.73;;
20621;SDS011;10470;42.670;23.354;2024-01-30T06:30:29;17.13;;;7.80;;
20621;SDS011;10470;42.670;23.354;2024-01-30T06:32:54;11.10;;;6.33;;
20621;SDS011;10470;42.670;23.354;2024-01-30T06:35:19;12.87;;;6.50;;
20621;SDS011;10470;42.670;23.354;2024-01-30T06:37:45;13.27;;;6.93;;
20621;SDS011;10470;42.670;23.354;2024-01-30T06:40:10;19.03;;;6.47;;
20621;SDS011;10470;42.670;23.354;2024-01-30T06:42:35;12.73;;;5.80;;
20621;SDS011;10470;42.670;23.354;2024-01-30T06:45:01;11.10;;;5.40;;
20621;SDS011;10470;42.670;23.354;2024-01-30T06:47:26;11.93;;;6.77;;
20621;SDS011;10470;42.670;23.354;2024-01-30T06:49:51;10.07;;;5.10;;
20621;SDS011;10470;42.670;23.354;2024-01-30T06:52:17;14.93;;;6.47;;
20621;SDS011;10470;42.670;23.354;2024-01-30T06:54:42;16.47;;;6.20;;
20621;SDS011;10470;42.670;23.354;2024-01-30T06:57:07;7.60;;;5.03;;
20621;SDS011;10470;42.670;23.354;2024-01-30T06:59:36;8.33;;;4.97;;
20621;SDS011;10470;42.670;23.354;2024-01-30T07:02:02;12.57;;;6.77;;
20621;SDS011;10470;42.670;23.354;2024-01-30T07:04:27;10.23;;;4.97;;
20621;SDS011;10470;42.670;23.354;2024-01-30T07:06:52;9.37;;;5.03;;
20621;SDS011;10470;42.670;23.354;2024-01-30T07:09:18;11.90;;;4.97;;
20621;SDS011;10470;42.670;23.354;2024-01-30T07:11:43;9.37;;;5.10;;
20621;SDS011;10470;42.670;23.354;2024-01-30T07:14:09;12.73;;;4.90;;
20621;SDS011;10470;42.670;23.354;2024-01-30T07:16:34;7.30;;;4.10;;
20621;SDS011;10470;42.670;23.354;2024-01-30T07:18:59;8.93;;;5.17;;
20621;SDS011;10470;42.670;23.354;2024-01-30T07:21:25;11.23;;;4.80;;
20621;SDS011;10470;42.670;23.354;2024-01-30T07:23:56;7.97;;;5.03;;
20621;SDS011;10470;42.670;23.354;2024-01-30T07:26:21;9.30;;;4.50;;
20621;SDS011;10470;42.670;23.354;2024-01-30T07:28:46;9.80;;;5.87;;
20621;SDS011;10470;42.670;23.354;2024-01-30T07:31:12;7.43;;;4.20;;
20621;SDS011;10470;42.670;23.354;2024-01-30T07:33:37;7.87;;;4.07;;
20621;SDS011;10470;42.670;23.354;2024-01-30T07:36:02;7.10;;;3.60;;
20621;SDS011;10470;42.670;23.354;2024-01-30T07:38:28;5.17;;;3.63;;
20621;SDS011;10470;42.670;23.354;2024-01-30T07:40:54;3.80;;;3.17;;
20621;SDS011;10470;42.670;23.354;2024-01-30T07:43:19;4.57;;;3.20;;
20621;SDS011;10470;42.670;23.354;2024-01-30T07:45:45;3.77;;;2.80;;
20621;SDS011;10470;42.670;23.354;2024-01-30T07:48:10;3.33;;;2.93;;
20621;SDS011;10470;42.670;23.354;2024-01-30T07:50:35;4.97;;;3.30;;
20621;SDS011;10470;42.670;23.354;2024-01-30T07:53:02;3.73;;;3.10;;
20621;SDS011;10470;42.670;23.354;2024-01-30T07:55:27;4.40;;;3.10;;
20621;SDS011;10470;42.670;23.354;2024-01-30T07:57:54;7.73;;;3.93;;
20621;SDS011;10470;42.670;23.354;2024-01-30T08:00:20;6.67;;;3.73;;
20621;SDS011;10470;42.670;23.354;2024-01-30T08:02:45;6.20;;;3.87;;
20621;SDS011;10470;42.670;23.354;2024-01-30T08:05:10;9.27;;;3.70;;
20621;SDS011;10470;42.670;23.354;2024-01-30T08:07:36;4.07;;;3.27;;
20621;SDS011;10470;42.670;23.354;2024-01-30T08:10:01;5.00;;;3.43;;
20621;SDS011;10470;42.670;23.354;2024-01-30T08:12:27;5.47;;;3.60;;
20621;SDS011;10470;42.670;23.354;2024-01-30T08:14:52;5.47;;;3.50;;
20621;SDS011;10470;42.670;23.354;2024-01-30T08:17:17;4.13;;;3.47;;
20621;SDS011;10470;42.670;23.354;2024-01-30T08:19:43;9.50;;;6.07;;
20621;SDS011;10470;42.670;23.354;2024-01-30T08:22:09;9.40;;;4.73;;
20621;SDS011;10470;42.670;23.354;2024-01-30T08:24:34;4.67;;;3.50;;
20621;SDS011;10470;42.670;23.354;2024-01-30T08:27:00;4.90;;;3.60;;
20621;SDS011;10470;42.670;23.354;2024-01-30T08:29:27;4.03;;;3.40;;
20621;SDS011;10470;42.670;23.354;2024-01-30T08:31:52;4.20;;;3.30;;
20621;SDS011;10470;42.670;23.354;2024-01-30T08:34:18;8.57;;;3.20;;
20621;SDS011;10470;42.670;23.354;2024-01-30T08:36:44;5.40;;;3.60;;
20621;SDS011;10470;42.670;23.354;2024-01-30T08:39:10;5.00;;;3.63;;
20621;SDS011;10470;42.670;23.354;2024-01-30T08:41:35;5.30;;;4.03;;
20621;SDS011;10470;42.670;23.354;2024-01-30T08:44:00;5.07;;;3.73;;
20621;SDS011;10470;42.670;23.354;2024-01-30T08:46:26;5.87;;;3.90;;
20621;SDS011;10470;42.670;23.354;2024-01-30T08:48:51;5.43;;;4.00;;
20621;SDS011;10470;42.670;23.354;2024-01-30T08:51:16;7.53;;;4.40;;
20621;SDS011;10470;42.670;23.354;2024-01-30T08:53:41;6.90;;;3.90;;
20621;SDS011;10470;42.670;23.354;2024-01-30T08:56:07;5.33;;;4.17;;
20621;SDS011;10470;42.670;23.354;2024-01-30T08:58:32;6.90;;;4.30;;
20621;SDS011;10470;42.670;23.354;2024-01-30T09:00:58;9.57;;;5.20;;
20621;SDS011;10470;42.670;23.354;2024-01-30T09:03:23;20.03;;;7.63;;
20621;SDS011;10470;42.670;23.354;2024-01-30T09:05:49;13.40;;;6.20;;
20621;SDS011;10470;42.670;23.354;2024-01-30T09:08:14;14.93;;;6.23;;
20621;SDS011;10470;42.670;23.354;2024-01-30T09:10:39;7.13;;;5.10;;
20621;SDS011;10470;42.670;23.354;2024-01-30T09:13:06;8.83;;;4.80;;
20621;SDS011;10470;42.670;23.354;2024-01-30T09:15:31;7.10;;;4.60;;
20621;SDS011;10470;42.670;23.354;2024-01-30T09:17:56;7.97;;;4.77;;
20621;SDS011;10470;42.670;23.354;2024-01-30T09:20:21;5.10;;;3.90;;
20621;SDS011;10470;42.670;23.354;2024-01-30T09:22:48;5.80;;;4.20;;
20621;SDS011;10470;42.670;23.354;2024-01-30T09:25:14;8.40;;;5.40;;
20621;SDS011;10470;42.670;23.354;2024-01-30T09:27:39;7.30;;;4.93;;
20621;SDS011;10470;42.670;23.354;2024-01-30T09:30:05;9.80;;;4.70;;
20621;SDS011;10470;42.670;23.354;2024-01-30T09:32:30;7.80;;;5.00;;
20621;SDS011;10470;42.670;23.354;2024-01-30T09:34:56;5.13;;;3.80;;
20621;SDS011;10470;42.670;23.354;2024-01-30T09:37:21;5.00;;;3.80;;
20621;SDS011;10470;42.670;23.354;2024-01-30T09:39:46;4.43;;;3.63;;
20621;SDS011;10470;42.670;23.354;2024-01-30T09:42:28;4.53;;;3.67;;
20621;SDS011;10470;42.670;23.354;2024-01-30T09:44:58;5.00;;;4.00;;
20621;SDS011;10470;42.670;23.354;2024-01-30T09:47:23;6.80;;;3.93;;
20621;SDS011;10470;42.670;23.354;2024-01-30T09:49:48;4.30;;;3.70;;
20621;SDS011;10470;42.670;23.354;2024-01-30T09:52:14;5.47;;;4.20;;
20621;SDS011;10470;42.670;23.354;2024-01-30T09:54:40;5.30;;;4.20;;
20621;SDS011;10470;42.670;23.354;2024-01-30T09:57:06;6.77;;;4.20;;
20621;SDS011;10470;42.670;23.354;2024-01-30T09:59:32;6.63;;;4.77;;
20621;SDS011;10470;42.670;23.354;2024-01-30T10:01:58;12.20;;;4.60;;
20621;SDS011;10470;42.670;23.354;2024-01-30T10:04:23;8.47;;;4.47;;
20621;SDS011;10470;42.670;23.354;2024-01-30T10:06:49;8.23;;;4.60;;
20621;SDS011;10470;42.670;23.354;2024-01-30T10:09:14;7.43;;;5.10;;
20621;SDS011;10470;42.670;23.354;2024-01-30T10:11:40;9.73;;;6.07;;
20621;SDS011;10470;42.670;23.354;2024-01-30T10:14:05;7.87;;;4.50;;
20621;SDS011;10470;42.670;23.354;2024-01-30T10:16:30;5.33;;;3.90;;
20621;SDS011;10470;42.670;23.354;2024-01-30T10:18:55;6.00;;;4.20;;
20621;SDS011;10470;42.670;23.354;2024-01-30T10:21:21;7.57;;;4.00;;
20621;SDS011;10470;42.670;23.354;2024-01-30T10:23:47;5.70;;;4.00;;
20621;SDS011;10470;42.670;23.354;2024-01-30T10:26:12;7.03;;;4.20;;
20621;SDS011;10470;42.670;23.354;2024-01-30T10:28:37;6.07;;;4.00;;
20621;SDS011;10470;42.670;23.354;2024-01-30T10:31:03;12.43;;;4.87;;
20621;SDS011;10470;42.670;23.354;2024-01-30T10:33:29;6.33;;;4.03;;
20621;SDS011;10470;42.670;23.354;2024-01-30T10:35:56;7.33;;;4.07;;
20621;SDS011;10470;42.670;23.354;2024-01-30T10:38:25;11.17;;;3.43;;
20621;SDS011;10470;42.670;23.354;2024-01-30T10:40:51;4.73;;;3.77;;
20621;SDS011;10470;42.670;23.354;2024-01-30T10:43:18;4.40;;;3.70;;
20621;SDS011;10470;42.670;23.354;2024-01-30T10:45:45;7.97;;;4.67;;
20621;SDS011;10470;42.670;23.354;2024-01-30T10:48:12;7.23;;;3.73;;
20621;SDS011;10470;42.670;23.354;2024-01-30T10:50:38;4.13;;;3.47;;
20621;SDS011;10470;42.670;23.354;2024-01-30T10:53:05;5.63;;;3.70;;
20621;SDS011;10470;42.670;23.354;2024-01-30T10:55:31;4.90;;;3.50;;
20621;SDS011;10470;42.670;23.354;2024-01-30T10:57:56;7.97;;;3.33;;
20621;SDS011;10470;42.670;23.354;2024-01-30T11:00:22;5.67;;;3.20;;
20621;SDS011;10470;42.670;23.354;2024-01-30T11:02:49;5.13;;;3.70;;
20621;SDS011;10470;42.670;23.354;2024-01-30T11:05:14;4.27;;;3.60;;
20621;SDS011;10470;42.670;23.354;2024-01-30T11:07:48;4.93;;;3.57;;
20621;SDS011;10470;42.670;23.354;2024-01-30T11:10:13;8.23;;;4.77;;
20621;SDS011;10470;42.670;23.354;2024-01-30T11:12:40;5.10;;;3.97;;
20621;SDS011;10470;42.670;23.354;2024-01-30T11:20:09;4.97;;;3.27;;
20621;SDS011;10470;42.670;23.354;2024-01-30T11:22:35;4.23;;;3.13;;
20621;SDS011;10470;42.670;23.354;2024-01-30T11:25:01;5.93;;;3.80;;
20621;SDS011;10470;42.670;23.354;2024-01-30T11:27:28;7.53;;;4.33;;
20621;SDS011;10470;42.670;23.354;2024-01-30T11:29:53;7.83;;;5.10;;
20621;SDS011;10470;42.670;23.354;2024-01-30T11:32:25;13.83;;;5.23;;
20621;SDS011;10470;42.670;23.354;2024-01-30T11:34:51;7.10;;;4.27;;
20621;SDS011;10470;42.670;23.354;2024-01-30T11:37:16;5.17;;;3.60;;
20621;SDS011;10470;42.670;23.354;2024-01-30T11:39:45;10.43;;;4.70;;
20621;SDS011;10470;42.670;23.354;2024-01-30T11:42:11;6.30;;;3.47;;
20621;SDS011;10470;42.670;23.354;2024-01-30T11:44:36;4.73;;;3.17;;
20621;SDS011;10470;42.670;23.354;2024-01-30T11:47:01;4.43;;;3.20;;
20621;SDS011;10470;42.670;23.354;2024-01-30T11:49:28;7.77;;;4.10;;
20621;SDS011;10470;42.670;23.354;2024-01-30T11:51:54;6.40;;;3.87;;
20621;SDS011;10470;42.670;23.354;2024-01-30T11:54:19;11.43;;;5.53;;
20621;SDS011;10470;42.670;23.354;2024-01-30T11:56:44;7.07;;;3.80;;
20621;SDS011;10470;42.670;23.354;2024-01-30T11:59:10;4.37;;;3.60;;
20621;SDS011;10470;42.670;23.354;2024-01-30T12:01:35;5.23;;;3.60;;
20621;SDS011;10470;42.670;23.354;2024-01-30T12:04:01;4.60;;;3.60;;
20621;SDS011;10470;42.670;23.354;2024-01-30T12:06:26;5.23;;;4.33;;
20621;SDS011;10470;42.670;23.354;2024-01-30T12:08:58;4.70;;;3.97;;
20621;SDS011;10470;42.670;23.354;2024-01-30T12:11:24;4.40;;;3.30;;
20621;SDS011;10470;42.670;23.354;2024-01-30T12:13:50;5.87;;;3.57;;
20621;SDS011;10470;42.670;23.354;2024-01-30T12:16:16;5.67;;;3.53;;
20621;SDS011;10470;42.670;23.354;2024-01-30T12:18:41;3.93;;;3.33;;
20621;SDS011;10470;42.670;23.354;2024-01-30T12:21:06;6.70;;;3.60;;
20621;SDS011;10470;42.670;23.354;2024-01-30T12:23:33;6.47;;;4.40;;
20621;SDS011;10470;42.670;23.354;2024-01-30T12:26:00;6.10;;;3.83;;
20621;SDS011;10470;42.670;23.354;2024-01-30T12:28:26;4.30;;;3.67;;
20621;SDS011;10470;42.670;23.354;2024-01-30T12:30:55;4.90;;;3.70;;
20621;SDS011;10470;42.670;23.354;2024-01-30T12:33:20;4.90;;;3.77;;
20621;SDS011;10470;42.670;23.354;2024-01-30T12:35:46;4.37;;;3.80;;
20621;SDS011;10470;42.670;23.354;2024-01-30T12:38:14;6.53;;;3.90;;
20621;SDS011;10470;42.670;23.354;2024-01-30T12:40:40;10.23;;;4.43;;
20621;SDS011;10470;42.670;23.354;2024-01-30T12:43:05;6.23;;;4.00;;
20621;SDS011;10470;42.670;23.354;2024-01-30T12:45:30;6.87;;;4.27;;
20621;SDS011;10470;42.670;23.354;2024-01-30T12:47:55;5.70;;;3.80;;
20621;SDS011;10470;42.670;23.354;2024-01-30T12:50:21;5.13;;;3.83;;
20621;SDS011;10470;42.670;23.354;2024-01-30T12:52:47;5.67;;;4.10;;
20621;SDS011;10470;42.670;23.354;2024-01-30T12:55:12;5.37;;;4.03;;
20621;SDS011;10470;42.670;23.354;2024-01-30T12:57:38;7.17;;;4.00;;
20621;SDS011;10470;42.670;23.354;2024-01-30T13:00:04;5.07;;;4.00;;
20621;SDS011;10470;42.670;23.354;2024-01-30T13:02:30;5.10;;;3.70;;
20621;SDS011;10470;42.670;23.354;2024-01-30T13:05:00;4.83;;;3.70;;
20621;SDS011;10470;42.670;23.354;2024-01-30T13:07:25;4.67;;;3.53;;
20621;SDS011;10470;42.670;23.354;2024-01-30T13:09:50;4.60;;;3.43;;
20621;SDS011;10470;42.670;23.354;2024-01-30T13:12:15;4.33;;;3.67;;
20621;SDS011;10470;42.670;23.354;2024-01-30T13:14:41;4.43;;;3.70;;
20621;SDS011;10470;42.670;23.354;2024-01-30T13:17:07;6.77;;;4.20;;
20621;SDS011;10470;42.670;23.354;2024-01-30T13:19:32;3.93;;;3.53;;
20621;SDS011;10470;42.670;23.354;2024-01-30T13:21:58;5.17;;;3.83;;
20621;SDS011;10470;42.670;23.354;2024-01-30T13:24:23;4.50;;;3.90;;
20621;SDS011;10470;42.670;23.354;2024-01-30T13:26:48;4.67;;;4.10;;
20621;SDS011;10470;42.670;23.354;2024-01-30T13:29:14;5.07;;;4.30;;
20621;SDS011;10470;42.670;23.354;2024-01-30T13:31:39;5.10;;;4.07;;
20621;SDS011;10470;42.670;23.354;2024-01-30T13:34:05;8.17;;;4.37;;
20621;SDS011;10470;42.670;23.354;2024-01-30T13:36:31;4.87;;;4.10;;
20621;SDS011;10470;42.670;23.354;2024-01-30T13:38:57;4.90;;;3.90;;
20621;SDS011;10470;42.670;23.354;2024-01-30T13:41:23;5.83;;;4.53;;
20621;SDS011;10470;42.670;23.354;2024-01-30T13:43:48;10.90;;;5.27;;
20621;SDS011;10470;42.670;23.354;2024-01-30T13:46:14;8.47;;;5.70;;
20621;SDS011;10470;42.670;23.354;2024-01-30T13:48:39;12.53;;;6.23;;
20621;SDS011;10470;42.670;23.354;2024-01-30T13:51:04;14.07;;;8.00;;
20621;SDS011;10470;42.670;23.354;2024-01-30T13:53:30;11.23;;;7.10;;
20621;SDS011;10470;42.670;23.354;2024-01-30T13:55:55;9.57;;;6.40;;
20621;SDS011;10470;42.670;23.354;2024-01-30T13:58:20;7.43;;;5.47;;
20621;SDS011;10470;42.670;23.354;2024-01-30T14:00:46;7.23;;;5.40;;
20621;SDS011;10470;42.670;23.354;2024-01-30T14:03:11;8.00;;;5.20;;
20621;SDS011;10470;42.670;23.354;2024-01-30T14:05:36;16.17;;;5.00;;
20621;SDS011;10470;42.670;23.354;2024-01-30T14:08:02;5.43;;;4.53;;
20621;SDS011;10470;42.670;23.354;2024-01-30T14:10:27;7.43;;;4.53;;
20621;SDS011;10470;42.670;23.354;2024-01-30T14:12:52;6.27;;;5.13;;
20621;SDS011;10470;42.670;23.354;2024-01-30T14:15:18;8.50;;;4.73;;
20621;SDS011;10470;42.670;23.354;2024-01-30T14:17:43;6.67;;;4.77;;
20621;SDS011;10470;42.670;23.354;2024-01-30T14:20:09;8.47;;;5.60;;
20621;SDS011;10470;42.670;23.354;2024-01-30T14:22:35;11.10;;;5.23;;
20621;SDS011;10470;42.670;23.354;2024-01-30T14:25:01;15.57;;;10.60;;
20621;SDS011;10470;42.670;23.354;2024-01-30T14:27:28;7.27;;;5.00;;